createdAt,value
2022-09-11T00:01:51.105Z,95099.42
2022-09-11T00:04:19.679Z,95089.64
2022-09-11T00:06:50.384Z,95092.50
2022-09-11T00:09:18.708Z,95094.45
2022-09-11T00:11:47.226Z,95104.83
2022-09-11T00:14:15.925Z,95102.41
2022-09-11T00:16:47.274Z,95100.20
2022-09-11T00:19:19.720Z,95097.80
2022-09-11T00:21:56.088Z,95098.20
2022-09-11T00:24:24.559Z,95096.55
2022-09-11T00:26:52.781Z,95091.45
2022-09-11T00:29:21.506Z,95097.70
2022-09-11T00:31:50.137Z,95095.39
2022-09-11T00:34:19.039Z,95097.23
2022-09-11T00:36:48.598Z,95098.01
2022-09-11T00:39:18.208Z,95099.62
2022-09-11T00:41:46.430Z,95099.54
2022-09-11T00:44:21.223Z,95095.33
2022-09-11T00:47:02.726Z,95091.59
2022-09-11T00:49:47.414Z,95089.91
2022-09-11T00:52:21.907Z,95091.83
2022-09-11T00:55:07.537Z,95095.92
2022-09-11T00:57:42.545Z,95091.55
2022-09-11T01:00:13.581Z,95093.35
2022-09-11T01:02:47.321Z,95089.44
2022-09-11T01:05:19.348Z,95090.65
2022-09-11T01:07:48.121Z,95085.88
2022-09-11T01:10:16.988Z,95084.19
2022-09-11T01:13:01.662Z,95080.55
2022-09-11T01:15:29.755Z,95071.84
2022-09-11T01:18:10.913Z,95069.89
2022-09-11T01:21:13.492Z,95070.94
2022-09-11T01:24:10.290Z,95066.15
2022-09-11T01:27:27.412Z,95063.90
2022-09-11T01:30:02.993Z,95065.50
2022-09-11T01:33:03.679Z,95063.99
2022-09-11T01:35:51.820Z,95062.69
2022-09-11T01:38:29.690Z,95063.36
2022-09-11T01:41:27.904Z,95059.15
2022-09-11T01:44:07.387Z,95053.73
2022-09-11T01:46:42.967Z,95049.41
2022-09-11T01:49:19.718Z,95045.87
2022-09-11T01:51:52.571Z,95050.64
2022-09-11T01:54:27.562Z,95050.31
2022-09-11T01:57:06.935Z,95051.65
2022-09-11T01:59:48.052Z,95051.27
2022-09-11T02:02:24.292Z,95051.50
2022-09-11T02:05:01.260Z,95058.82
2022-09-11T02:07:42.630Z,95057.09
2022-09-11T02:10:18.417Z,95053.65
2022-09-11T02:13:01.218Z,95050.09
2022-09-11T02:15:42.967Z,95047.70
2022-09-11T02:18:27.010Z,95045.31
2022-09-11T02:20:56.210Z,95045.92
2022-09-11T02:23:24.540Z,95041.79
2022-09-11T02:25:53.889Z,95038.55
2022-09-11T02:28:22.053Z,95033.55
2022-09-11T02:30:50.648Z,95028.77
2022-09-11T02:33:33.113Z,95030.55
2022-09-11T02:36:20.204Z,95025.70
2022-09-11T02:39:00.717Z,95025.33
2022-09-11T02:41:55.458Z,95025.38
2022-09-11T02:44:56.542Z,95024.75
2022-09-11T02:47:47.082Z,95019.83
2022-09-11T02:50:55.875Z,95020.77
2022-09-11T02:53:32.539Z,95018.02
2022-09-11T02:56:29.652Z,95020.79
2022-09-11T02:59:04.568Z,95014.68
2022-09-11T03:01:53.124Z,95010.58
2022-09-11T03:04:24.770Z,95013.40
2022-09-11T03:06:55.876Z,95008.40
2022-09-11T03:09:24.710Z,95012.66
2022-09-11T03:11:56.522Z,95010.02
2022-09-11T03:14:24.895Z,95007.71
2022-09-11T03:16:53.721Z,95006.54
2022-09-11T03:19:22.125Z,95015.66
2022-09-11T03:21:51.734Z,95016.77
2022-09-11T03:24:22.538Z,95016.27
2022-09-11T03:26:52.284Z,95015.89
2022-09-11T03:29:22.676Z,95015.61
2022-09-11T03:31:53.929Z,95018.00
2022-09-11T03:34:23.124Z,95010.93
2022-09-11T03:36:52.564Z,95010.88
2022-09-11T03:39:21.620Z,95020.41
2022-09-11T03:41:52.180Z,95023.61
2022-09-11T03:44:22.115Z,95028.17
2022-09-11T03:46:52.781Z,95025.95
2022-09-11T03:49:20.922Z,95026.95
2022-09-11T03:51:50.016Z,95030.83
2022-09-11T03:54:21.032Z,95036.36
2022-09-11T03:56:50.422Z,95033.46
2022-09-11T03:59:20.108Z,95036.59
2022-09-11T04:01:50.899Z,95032.38
2022-09-11T04:04:21.455Z,95033.95
2022-09-11T04:06:49.591Z,95037.02
2022-09-11T04:09:19.183Z,95038.95
2022-09-11T04:11:49.106Z,95036.94
2022-09-11T04:14:25.626Z,95039.17
2022-09-11T04:16:55.636Z,95038.53
2022-09-11T04:19:24.477Z,95037.07
2022-09-11T04:21:53.044Z,95034.64
2022-09-11T04:24:23.529Z,95037.83
2022-09-11T04:26:56.304Z,95042.25
2022-09-11T04:29:29.797Z,95046.66
2022-09-11T04:31:59.589Z,95047.48
2022-09-11T04:34:32.254Z,95045.73
2022-09-11T04:37:01.288Z,95046.64
2022-09-11T04:39:32.080Z,95046.92
2022-09-11T04:42:02.229Z,95041.70
2022-09-11T04:44:32.661Z,95035.21
2022-09-11T04:47:01.903Z,95032.23
2022-09-11T04:49:33.610Z,95032.05
2022-09-11T04:52:07.113Z,95030.16
2022-09-11T04:54:38.683Z,95031.00
2022-09-11T04:57:14.648Z,95025.07
2022-09-11T04:59:48.883Z,95025.43
2022-09-11T05:02:20.689Z,95023.80
2022-09-11T05:04:52.298Z,95018.98
2022-09-11T05:07:23.922Z,95017.42
2022-09-11T12:56:38.295Z,94945.44
2022-09-11T14:23:21.353Z,94960.02
2022-09-11T14:26:35.741Z,94959.56
2022-09-11T14:29:26.205Z,94951.27
2022-09-11T14:32:16.114Z,94952.09
2022-09-11T14:34:49.486Z,94942.37
2022-09-11T14:37:21.243Z,94936.47
2022-09-11T14:39:59.632Z,94935.79
2022-09-11T14:42:39.031Z,94936.73
2022-09-11T14:45:19.196Z,94942.73
2022-09-11T14:47:53.137Z,94946.71
2022-09-11T14:50:23.702Z,94948.92
2022-09-11T14:52:53.696Z,94950.50
2022-09-11T14:55:24.578Z,94951.92
2022-09-11T14:57:58.062Z,94958.80
2022-09-11T15:00:28.276Z,94956.60
2022-09-11T15:02:57.693Z,94957.09
2022-09-11T15:05:28.510Z,94952.02
2022-09-11T15:08:00.492Z,94955.64
2022-09-11T15:10:30.509Z,94958.06
2022-09-11T15:13:00.123Z,94952.92
2022-09-11T15:15:30.057Z,94957.98
2022-09-11T15:18:06.110Z,94956.43
2022-09-11T15:20:37.269Z,94958.84
2022-09-11T15:23:06.924Z,94957.45
2022-09-11T15:25:36.484Z,94955.33
2022-09-11T15:28:13.622Z,94951.98
2022-09-11T15:30:46.813Z,94953.95
2022-09-11T15:33:18.638Z,94953.24
2022-09-11T15:35:48.304Z,94957.65
2022-09-11T15:38:21.226Z,94958.66
2022-09-11T15:40:58.721Z,94962.92
2022-09-11T15:43:39.337Z,94965.22
2022-09-11T15:46:15.812Z,94969.08
2022-09-11T15:48:45.006Z,94970.41
2022-09-11T15:51:18.475Z,94969.61
2022-09-11T15:53:49.028Z,94971.98
2022-09-11T15:56:23.947Z,94974.05
2022-09-11T15:58:59.783Z,94970.59
2022-09-11T16:01:33.226Z,94963.71
2022-09-11T16:04:05.659Z,94965.68
2022-09-11T16:06:40.289Z,94957.33
2022-09-11T16:09:14.126Z,94963.97
2022-09-11T16:11:47.445Z,94962.00
2022-09-11T16:14:31.981Z,94957.80
2022-09-11T16:17:02.585Z,94959.25
2022-09-11T16:19:35.767Z,94952.50
2022-09-11T16:22:07.315Z,94948.85
2022-09-11T16:24:38.006Z,94949.52
2022-09-11T16:27:10.034Z,94951.52
2022-09-11T16:32:29.509Z,94954.92
2022-09-11T16:34:59.884Z,94958.50
2022-09-11T16:37:37.481Z,94953.02
2022-09-11T16:40:08.667Z,94950.63
2022-09-11T16:42:38.304Z,94950.05
2022-09-11T16:45:09.625Z,94949.65
2022-09-11T16:47:38.223Z,94944.77
2022-09-11T16:50:08.700Z,94943.75
2022-09-11T16:52:39.504Z,94948.05
2022-09-11T16:55:11.035Z,94944.66
2022-09-11T16:57:44.130Z,94948.23
2022-09-11T17:00:15.754Z,94948.88
2022-09-11T17:02:46.832Z,94949.24
2022-09-11T17:05:17.724Z,94951.63
2022-09-11T17:07:48.146Z,94951.77
2022-09-11T17:10:17.403Z,94950.83
2022-09-11T17:12:45.978Z,94960.20
2022-09-11T17:15:17.789Z,94962.11
2022-09-11T17:17:49.957Z,94962.92
2022-09-11T17:20:18.507Z,94967.20
2022-09-11T17:22:47.030Z,94960.98
2022-09-11T17:25:15.835Z,94963.50
2022-09-11T17:27:46.906Z,94967.02
2022-09-11T17:30:18.971Z,94969.13
2022-09-11T17:32:50.139Z,94971.67
2022-09-11T17:35:20.582Z,94974.19
2022-09-11T17:37:51.951Z,94971.53
2022-09-11T17:40:26.557Z,94968.11
2022-09-11T17:42:56.093Z,94966.89
2022-09-11T17:45:25.757Z,94965.52
2022-09-11T17:47:55.769Z,94966.86
2022-09-11T17:50:24.719Z,94974.30
2022-09-11T17:52:55.253Z,94981.16
2022-09-11T17:55:24.943Z,94980.87
2022-09-11T17:57:54.416Z,94985.95
2022-09-11T18:00:23.447Z,94988.38
2022-09-11T18:02:54.237Z,94991.75
2022-09-11T18:05:22.776Z,94993.93
2022-09-11T18:07:51.439Z,94990.13
2022-09-11T18:10:21.525Z,94998.48
2022-09-11T18:12:52.941Z,94997.58
2022-09-11T18:15:21.920Z,95003.14
2022-09-11T18:17:54.077Z,95001.52
2022-09-11T18:20:25.149Z,94999.84
2022-09-11T18:22:54.859Z,95011.73
2022-09-11T18:25:25.373Z,95014.55
2022-09-11T18:27:55.014Z,95015.50
2022-09-11T18:30:24.171Z,95017.87
2022-09-11T18:32:53.783Z,95018.77
2022-09-11T18:35:23.228Z,95008.50
2022-09-11T18:37:55.449Z,94999.45
2022-09-11T18:40:23.872Z,94991.71
2022-09-11T18:42:52.531Z,94991.34
2022-09-11T18:45:21.045Z,94992.04
2022-09-11T18:47:55.317Z,94987.47
2022-09-11T18:50:24.473Z,94991.20
2022-09-11T18:52:53.869Z,94992.52
2022-09-11T18:55:23.133Z,94988.46
2022-09-11T18:57:51.660Z,94992.00
2022-09-11T19:00:21.240Z,94994.30
2022-09-11T19:02:52.773Z,94991.45
2022-09-11T19:05:22.200Z,94990.57
2022-09-11T19:07:51.011Z,94988.52
2022-09-11T19:10:19.536Z,94989.70
2022-09-11T19:12:49.532Z,94989.73
2022-09-11T19:15:18.191Z,94991.11
2022-09-11T19:17:47.976Z,94994.07
2022-09-11T19:20:18.044Z,94997.45
2022-09-11T19:22:47.688Z,95000.73
2022-09-11T19:25:16.200Z,94998.16
2022-09-11T19:27:45.125Z,94994.50
2022-09-11T19:30:14.358Z,94990.63
2022-09-11T19:32:45.563Z,94994.40
2022-09-11T19:35:14.199Z,95009.35
2022-09-11T19:37:44.296Z,95020.77
2022-09-11T19:40:14.464Z,95016.89
2022-09-11T19:42:45.519Z,95014.81
2022-09-11T19:45:13.847Z,95016.78
2022-09-11T19:47:42.909Z,95017.55
2022-09-11T19:50:13.101Z,95016.92
2022-09-11T19:52:41.329Z,95014.45
2022-09-11T19:55:12.761Z,95009.74
2022-09-11T19:57:43.286Z,95012.28
2022-09-11T20:00:12.853Z,95007.34
2022-09-11T20:02:41.223Z,95005.06
2022-09-11T20:05:10.034Z,95007.40
2022-09-11T20:07:38.450Z,95004.73
2022-09-11T20:10:08.394Z,95001.94
2022-09-11T20:12:37.947Z,95003.52
2022-09-11T20:15:08.032Z,95009.52
2022-09-11T20:17:37.318Z,95011.12
2022-09-11T20:20:07.300Z,95012.07
2022-09-11T20:22:36.184Z,95007.95
2022-09-11T20:25:06.603Z,95005.34
2022-09-11T20:27:35.589Z,95002.59
2022-09-11T20:30:06.735Z,95004.48
2022-09-11T20:32:39.207Z,94996.29
2022-09-11T20:35:09.663Z,95001.27
2022-09-11T20:37:38.995Z,95001.17
2022-09-11T20:40:09.360Z,95004.48
2022-09-11T20:42:39.897Z,95004.55
2022-09-11T20:45:08.874Z,95004.52
2022-09-11T20:47:37.702Z,95003.37
2022-09-11T20:50:07.482Z,95006.34
2022-09-11T20:52:39.344Z,95008.95
2022-09-11T20:55:09.329Z,95006.30
2022-09-11T20:57:37.671Z,95009.55
2022-09-11T21:00:07.075Z,95009.75
2022-09-11T21:02:36.544Z,95010.63
2022-09-11T21:05:05.347Z,95014.27
2022-09-11T21:07:34.820Z,95012.65
2022-09-11T21:10:03.282Z,95005.79
2022-09-11T21:12:31.751Z,95003.36
2022-09-11T21:15:00.393Z,95008.98
2022-09-11T21:17:28.801Z,95012.70
2022-09-11T21:19:58.099Z,95011.05
2022-09-11T21:22:27.285Z,95009.30
2022-09-11T21:24:55.660Z,95008.48
2022-09-11T21:27:24.264Z,95003.23
2022-09-11T21:29:52.807Z,95006.77
2022-09-11T21:32:21.794Z,95003.04
2022-09-11T21:34:50.451Z,95002.55
2022-09-11T21:37:21.732Z,95001.19
2022-09-11T21:39:50.943Z,95001.86
2022-09-11T21:42:20.262Z,95000.46
2022-09-11T21:44:49.948Z,95003.00
2022-09-11T21:47:18.898Z,94999.74
2022-09-11T21:49:47.547Z,94998.81
2022-09-11T21:52:15.859Z,94996.41
2022-09-11T21:54:45.530Z,95000.55
2022-09-11T21:57:15.461Z,94998.00
2022-09-11T21:59:43.664Z,94993.84
2022-09-11T22:02:13.143Z,94995.31
2022-09-11T22:04:43.568Z,94998.10
2022-09-11T22:07:12.474Z,94997.33
2022-09-11T22:09:41.245Z,94998.04
2022-09-11T22:12:10.794Z,94998.82
2022-09-11T22:14:39.867Z,94999.25
2022-09-11T22:17:08.068Z,95000.57
2022-09-11T22:19:36.359Z,94997.92
2022-09-11T22:22:06.949Z,94999.54
2022-09-11T22:24:35.238Z,94992.07
2022-09-11T22:27:06.881Z,94995.89
2022-09-11T22:29:35.519Z,94994.89
2022-09-11T22:32:07.676Z,94999.21
2022-09-11T22:34:36.874Z,94993.38
2022-09-11T22:37:06.413Z,94993.57
2022-09-11T22:39:34.612Z,94991.04
2022-09-11T22:42:05.161Z,94990.42
2022-09-11T22:44:34.363Z,94987.80
2022-09-11T22:47:04.653Z,94987.38
2022-09-11T22:49:33.380Z,94987.01
2022-09-11T22:52:01.937Z,94984.21
2022-09-11T22:54:30.246Z,94984.52
2022-09-11T22:56:58.772Z,94984.20
2022-09-11T22:59:27.783Z,94984.11
2022-09-11T23:01:56.835Z,94982.23
2022-09-11T23:04:26.867Z,94978.14
2022-09-11T23:07:15.047Z,94979.31
2022-09-11T23:09:44.892Z,94978.23
2022-09-11T23:12:15.296Z,94979.84
2022-09-11T23:14:44.081Z,94976.94
2022-09-11T23:17:12.761Z,94976.48
2022-09-11T23:19:41.352Z,94977.79
2022-09-11T23:22:09.695Z,94976.27
2022-09-11T23:24:38.731Z,94980.10
2022-09-11T23:27:07.804Z,94974.39
2022-09-11T23:29:37.224Z,94976.79
2022-09-11T23:32:05.720Z,94975.89
2022-09-11T23:34:35.105Z,94972.04
2022-09-11T23:37:03.687Z,94971.08
2022-09-11T23:39:32.106Z,94973.38
2022-09-11T23:42:03.019Z,94973.08
2022-09-11T23:44:32.367Z,94969.48
2022-09-11T23:47:02.433Z,94975.06
2022-09-11T23:49:35.504Z,94973.70
2022-09-11T23:52:06.413Z,94976.64
2022-09-11T23:54:36.063Z,94973.78
2022-09-11T23:57:04.582Z,94972.16
2022-09-11T23:59:35.837Z,94970.01
